Latest Coastal Weather Observations for Maria Island

IDT60701

Issued at 5:43 pm EDT Friday 3 December 2021 (issued every 10 minutes, with the page automatically refreshed every 10 minutes)

About coastal observations | Map of coastal stations | Coastal observations for TAS | Marine services | Other Formats
Station Details ID: 092124 Name: MARIA ISLAND (POINT LESUEUR) Lat: -42.66 Lon: 148.02 Height: 28.0 m
Data from the previous 72 hours. | See also: Recent months at Maria Island
Date/Time
EDT
Wind Sea
Height
m
Swell Vis
km
Cloud Weather Temp
°C
Press
MSL
hPa
Rain since
9am
mm
Dir  Spd
kts
Gust
kts
Height
m
Period
s
Dir
03/05:30pm NNE 7 11 - - - - - - - 13.7 1014.2 0.0
03/05:00pm NNE 9 12 - - - - - - - 13.6 1014.5 0.0
03/04:30pm NE 10 13 - - - - - - - 13.8 1014.7 0.0
03/04:00pm E 12 16 - - - - - - - 14.0 1014.8 0.0
03/03:30pm E 12 15 - - - - - - - 13.9 1015.3 0.0
03/03:00pm E 12 15 - - - - - - - 13.9 1015.5 0.0
03/02:30pm E 14 17 - - - - - - - 14.2 1015.6 0.0
03/02:00pm E 13 17 - - - - - - - 14.4 1015.7 0.0
03/01:30pm E 14 17 - - - - - - - 15.4 1015.9 0.0
03/01:00pm ENE 14 20 - - - - - - - 14.8 1016.0 0.0
03/12:30pm E 13 18 - - - - - - - 15.1 1016.0 0.0
03/12:00pm SSE 9 11 - - - - - - - 16.4 1016.0 0.0
03/11:30am SSE 8 9 - - - - - - - 16.5 1016.1 0.0
03/11:00am SSE 12 14 - - - - - - - 15.9 1016.2 0.0
03/10:30am SSW 7 9 - - - - - - - 16.1 1016.5 0.0
03/10:00am S 10 12 - - - - - - - 14.8 1016.4 0.0
03/09:30am S 10 13 - - - - - - - 15.3 1016.4 0.0
03/09:00am S 14 17 - - - - - - - 14.2 1016.2 1.8
03/08:30am SSW 14 17 - - - - - - - 14.5 1016.0 1.8
03/08:00am SSW 11 13 - - - - - - - 13.3 1015.7 1.8
03/07:30am SSW 12 16 - - - - - - - 13.8 1015.4 1.8
03/07:00am SSW 14 18 - - - - - - - 13.2 1014.8 1.8
03/06:30am SW 13 18 - - - - - - - 13.6 1014.1 1.8
03/06:00am SW 10 13 - - - - - - - 13.5 1013.7 1.8
03/05:30am SSW 7 11 - - - - - - - 13.2 1013.2 1.8
03/05:00am SSW 12 16 - - - - - - - 13.5 1012.4 1.8
03/04:36am SSW 15 27 - - - - - - - 13.6 1011.8 1.8
03/04:30am SSW 13 18 - - - - - - - 13.4 1012.0 1.8
03/04:00am WSW 7 11 - - - - - - - 13.5 1011.9 1.8
03/03:30am SSW 11 17 - - - - - - - 13.7 1011.8 1.8
03/03:00am SW 11 15 - - - - - - - 14.0 1011.9 1.8
03/02:30am SSW 12 16 - - - - - - - 14.1 1012.0 1.8
03/02:00am S 4 6 - - - - - - - 13.6 1012.2 1.8
03/01:30am ESE 2 3 - - - - - - - 13.6 1012.4 1.8
03/01:00am ESE 4 5 - - - - - - - 13.5 1012.4 1.8
03/12:30am S 6 8 - - - - - - - 13.7 1012.7 1.8
03/12:00am SE 2 6 - - - - - - - 13.9 1012.5 1.8
 
Date/Time
EDT
Wind Sea
Height
m
Swell Vis
km
Cloud Weather Temp
°C
Press
MSL
hPa
Rain since
9am
mm
Dir  Spd
kts
Gust
kts
Height
m
Period
s
Dir
02/11:30pm E 10 12 - - - - - - - 13.4 1012.0 1.8
02/11:00pm E 11 13 - - - - - - - 13.4 1011.6 1.8
02/10:30pm ENE 7 9 - - - - - - - 13.8 1011.4 1.8
02/10:00pm SE 10 12 - - - - - - - 14.1 1011.3 1.2
02/09:30pm SE 13 18 - - - - - - - 14.4 1010.2 0.0
02/09:00pm E 11 15 - - - - - - - 14.6 1009.4 0.0
02/08:30pm SE 8 13 - - - - - - - 15.3 1008.7 0.0
02/08:00pm E 11 15 - - - - - - - 15.7 1008.3 0.0
02/07:30pm S 16 19 - - - - - - - 15.8 1008.1 0.0
02/07:00pm S 20 23 - - - - - - - 16.5 1008.2 0.0
02/06:43pm WSW 15 33 - - - - - - - 18.2 1008.1 0.0
02/06:30pm N 16 20 - - - - - - - 20.2 1007.1 0.0
02/06:00pm N 16 18 - - - - - - - 21.8 1006.1 0.0
02/05:30pm N 16 20 - - - - - - - 23.2 1006.0 0.0
02/05:00pm N 19 23 - - - - - - - 22.7 1006.6 0.0
02/04:30pm N 19 22 - - - - - - - 21.9 1006.7 0.0
02/04:00pm N 22 28 - - - - - - - 22.8 1006.2 0.0
02/03:30pm N 25 31 - - - - - - - 22.6 1006.8 0.0
02/03:00pm N 20 25 - - - - - - - 21.5 1007.7 0.0
02/02:30pm N 21 24 - - - - - - - 20.8 1008.4 0.0
02/02:00pm N 24 26 - - - - - - - 19.6 1008.6 0.0
02/01:30pm N 18 21 - - - - - - - 19.9 1009.2 0.0
02/01:00pm NNW 18 21 - - - - - - - 19.7 1009.9 0.0
02/12:30pm NNW 14 19 - - - - - - - 18.6 1010.6 0.0
02/12:00pm NNW 17 19 - - - - - - - 17.6 1011.1 0.0
02/11:30am NNW 15 18 - - - - - - - 17.2 1011.6 0.0
02/11:00am NNW 20 22 - - - - - - - 17.2 1012.2 0.0
02/10:30am N 17 19 - - - - - - - 17.0 1012.3 0.0
02/10:00am N 11 15 - - - - - - - 17.0 1013.0 0.0
02/09:30am N 10 13 - - - - - - - 16.3 1013.6 0.0
02/09:00am N 7 9 - - - - - - - 16.4 1013.8 0.0
02/08:30am N 5 6 - - - - - - - 15.8 1014.0 0.0
02/08:00am NNW 3 3 - - - - - - - 15.6 1013.9 0.0
02/07:30am NW 3 3 - - - - - - - 15.2 1013.9 0.0
02/07:00am NW 2 3 - - - - - - - 14.5 1013.8 0.0
02/06:30am NW 3 4 - - - - - - - 14.1 1013.8 0.0
02/06:00am SSE 2 3 - - - - - - - 14.4 1013.7 0.0
02/05:30am S 6 7 - - - - - - - 14.4 1013.4 0.0
02/05:00am S 7 9 - - - - - - - 14.5 1013.5 0.0
02/04:30am S 8 9 - - - - - - - 14.7 1013.4 0.0
02/04:00am S 9 12 - - - - - - - 14.8 1013.5 0.0
02/03:30am SSW 4 8 - - - - - - - 14.5 1013.4 0.0
02/03:00am SW 3 4 - - - - - - - 14.4 1013.4 0.0
02/02:30am S 6 7 - - - - - - - 14.9 1013.4 0.0
02/02:00am S 7 9 - - - - - - - 15.1 1013.7 0.0
02/01:30am S 10 14 - - - - - - - 15.3 1013.8 0.0
02/01:00am S 11 12 - - - - - - - 15.4 1014.0 0.0
02/12:30am S 10 13 - - - - - - - 15.4 1014.1 0.0
02/12:00am SSW 13 15 - - - - - - - 15.5 1014.3 0.0
 
Date/Time
EDT
Wind Sea
Height
m
Swell Vis
km
Cloud Weather Temp
°C
Press
MSL
hPa
Rain since
9am
mm
Dir  Spd
kts
Gust
kts
Height
m
Period
s
Dir
01/11:30pm S 10 11 - - - - - - - 15.6 1014.5 0.0
01/11:00pm S 14 17 - - - - - - - 15.9 1014.4 0.0
01/10:30pm S 12 14 - - - - - - - 15.9 1014.3 0.0
01/10:00pm SSE 13 15 - - - - - - - 16.1 1014.2 0.0
01/09:30pm SSE 14 17 - - - - - - - 16.4 1013.9 0.0
01/09:00pm S 19 22 - - - - - - - 16.3 1013.3 0.0
01/08:38pm S 12 18 - - - - - - - 17.8 1012.7 0.0
01/08:30pm S 5 8 - - - - - - - 18.3 1012.7 0.0
01/08:00pm NNW 10 12 - - - - - - - 18.0 1012.1 0.0
01/07:30pm N 12 13 - - - - - - - 18.3 1011.6 0.0
01/07:00pm N 10 12 - - - - - - - 18.1 1011.3 0.0
01/06:30pm N 12 13 - - - - - - - 17.7 1011.0 0.0
01/06:00pm NW 13 16 - - - - - - - 17.7 1010.6 0.0
01/05:30pm NW 13 15 - - - - - - - 18.3 1010.5 0.0
01/05:00pm NNW 15 16 - - - - - - - 19.6 1010.4 0.0
01/04:30pm WNW 9 13 - - - - - - - 19.0 1011.3 0.0
01/04:00pm NNW 16 17 - - - - - - - 18.6 1010.8 0.0
01/03:30pm WNW 10 13 - - - - - - - 18.8 1010.9 0.0
01/03:00pm NNW 8 10 - - - - - - - 20.9 1010.9 0.0
01/02:30pm N 14 16 - - - - - - - 19.5 1011.0 0.0
01/02:00pm N 18 21 - - - - - - - 20.0 1011.0 0.0
01/01:30pm N 17 21 - - - - - - - 20.7 1011.2 0.0
01/01:00pm N 18 19 - - - - - - - 20.4 1011.3 0.0
01/12:30pm N 18 20 - - - - - - - 20.4 1011.7 0.0
01/12:00pm N 19 21 - - - - - - - 19.4 1011.7 0.0
01/11:30am N 17 19 - - - - - - - 19.7 1012.0 0.0
01/11:00am N 18 20 - - - - - - - 19.0 1012.1 0.0
01/10:30am N 18 21 - - - - - - - 18.4 1012.3 0.0
01/10:00am N 18 21 - - - - - - - 18.2 1012.4 0.0
01/09:30am N 18 20 - - - - - - - 18.1 1012.3 0.0
01/09:00am N 19 23 - - - - - - - 17.3 1012.3 0.0
01/08:30am N 20 22 - - - - - - - 16.8 1012.3 0.0
01/08:00am N 19 22 - - - - - - - 16.6 1012.3 0.0
01/07:30am N 18 21 - - - - - - - 16.6 1012.1 0.0
01/07:00am N 19 22 - - - - - - - 16.1 1012.1 0.0
01/06:30am N 20 22 - - - - - - - 15.8 1011.9 0.0
01/06:00am N 18 21 - - - - - - - 15.5 1011.9 0.0
01/05:00am N 19 22 - - - - - - - 15.4 1011.7 0.0
01/04:30am N 19 22 - - - - - - - 14.9 1011.8 0.0
01/04:00am N 18 21 - - - - - - - 14.7 1011.7 0.0
01/03:30am N 19 21 - - - - - - - 14.6 1011.9 0.0
01/03:00am N 21 23 - - - - - - - 14.8 1011.8 0.0
01/02:30am N 23 26 - - - - - - - 15.1 1012.0 0.0
01/02:00am N 22 25 - - - - - - - 15.1 1012.2 0.0
01/01:30am N 26 30 - - - - - - - 15.3 1012.3 0.0
01/01:00am N 27 32 - - - - - - - 15.3 1012.4 0.0
01/12:30am N 28 33 - - - - - - - 15.4 1012.3 0.0
01/12:00am N 28 32 - - - - - - - 15.6 1012.7 0.0
 
Date/Time
EDT
Wind Sea
Height
m
Swell Vis
km
Cloud Weather Temp
°C
Press
MSL
hPa
Rain since
9am
mm
Dir  Spd
kts
Gust
kts
Height
m
Period
s
Dir
30/11:30pm N 28 33 - - - - - - - 15.7 1012.7 0.0
30/11:00pm N 26 31 - - - - - - - 15.8 1013.0 0.0
30/10:30pm N 25 30 - - - - - - - 15.8 1013.4 0.0
30/10:00pm N 23 29 - - - - - - - 15.8 1013.4 0.0
30/09:30pm N 20 26 - - - - - - - 15.9 1013.6 0.0
30/09:00pm N 20 26 - - - - - - - 16.0 1013.4 0.0
30/08:30pm N 12 17 - - - - - - - 15.9 1013.6 0.0
30/08:00pm N 14 17 - - - - - - - 16.2 1013.6 0.0
30/07:30pm N 16 22 - - - - - - - 16.3 1013.4 0.0
30/07:00pm N 16 21 - - - - - - - 16.6 1013.4 0.0
30/06:30pm N 17 21 - - - - - - - 16.9 1013.4 0.0
30/06:00pm N 18 25 - - - - - - - 17.1 1013.5 0.0

Other formats

Comma delimited format used in spreadsheet applications
http://www.bom.gov.au/fwo/IDT60701/IDT60701.95988.axf

JavaScript Object Notation format (JSON) in row-major order
http://www.bom.gov.au/fwo/IDT60701/IDT60701.95988.json

Data quality

Most of these data are generated automatically and are frequently updated. Quality checks on data are not normally performed. It is possible for incorrect values to appear. Refer to information at About Latest Weather Observations and please check the disclaimer before using these data.